createdAt,value
2019-05-29T00:00:21.547Z,16.70
2019-05-29T00:05:29.425Z,16.63
2019-05-29T00:10:37.568Z,16.07
2019-05-29T00:15:44.814Z,14.13
2019-05-29T00:21:12.992Z,14.03
2019-05-29T00:26:39.651Z,12.73
2019-05-29T00:31:47.082Z,11.73
2019-05-29T00:36:54.352Z,11.60
2019-05-29T00:42:01.672Z,11.33
2019-05-29T00:47:09.910Z,11.57
2019-05-29T00:52:18.357Z,11.83
2019-05-29T00:57:26.642Z,11.80
2019-05-29T01:02:34.075Z,12.00
2019-05-29T01:07:41.311Z,11.80
2019-05-29T01:12:48.547Z,11.90
2019-05-29T01:17:56.037Z,13.00
2019-05-29T01:23:03.312Z,12.60
2019-05-29T01:28:11.146Z,11.80
2019-05-29T01:33:20.485Z,12.60
2019-05-29T01:38:29.518Z,12.07
2019-05-29T01:43:37.645Z,11.53
2019-05-29T01:48:45.074Z,11.37
2019-05-29T01:53:52.662Z,11.93
2019-05-29T01:58:59.989Z,12.20
2019-05-29T02:04:07.742Z,11.83
2019-05-29T02:09:15.925Z,11.63
2019-05-29T02:14:24.864Z,8.70
2019-05-29T02:19:34.850Z,7.47
2019-05-29T02:24:42.969Z,7.57
2019-05-29T02:29:50.366Z,6.90
2019-05-29T02:34:58.516Z,7.00
2019-05-29T02:40:08.332Z,6.13
2019-05-29T02:45:17.190Z,5.97
2019-05-29T02:50:26.197Z,6.60
2019-05-29T02:55:34.380Z,5.40
2019-05-29T03:00:54.858Z,5.30
2019-05-29T03:06:02.413Z,4.93
2019-05-29T03:11:09.760Z,4.83
2019-05-29T03:16:28.173Z,4.80
2019-05-29T03:21:36.359Z,4.77
2019-05-29T03:26:52.926Z,4.40
2019-05-29T03:32:00.198Z,4.20
2019-05-29T03:37:08.483Z,4.10
2019-05-29T03:42:16.943Z,4.40
2019-05-29T03:47:26.768Z,4.70
2019-05-29T03:52:34.962Z,4.60
2019-05-29T03:57:44.342Z,4.17
2019-05-29T04:02:51.800Z,4.47
2019-05-29T04:07:59.099Z,4.90
2019-05-29T04:13:07.573Z,5.10
2019-05-29T04:18:19.507Z,4.53
2019-05-29T04:23:29.920Z,4.80
2019-05-29T04:28:39.219Z,4.53
2019-05-29T04:33:46.779Z,4.40
2019-05-29T04:38:59.613Z,4.20
2019-05-29T04:44:10.853Z,4.53
2019-05-29T04:49:20.322Z,4.93
2019-05-29T04:54:29.321Z,4.50
2019-05-29T04:59:37.136Z,4.77
2019-05-29T05:04:45.465Z,4.47
2019-05-29T05:09:52.854Z,4.43
2019-05-29T05:15:01.453Z,4.57
2019-05-29T05:20:09.748Z,4.53
2019-05-29T05:25:18.059Z,4.27
2019-05-29T05:30:27.884Z,4.63
2019-05-29T05:35:36.799Z,3.97
2019-05-29T05:40:47.837Z,3.67
2019-05-29T05:45:55.077Z,3.60
2019-05-29T05:51:02.881Z,3.90
2019-05-29T05:56:12.259Z,3.57
2019-05-29T06:01:21.398Z,3.77
2019-05-29T06:06:29.440Z,3.30
2019-05-29T06:11:36.642Z,3.97
2019-05-29T06:16:44.723Z,4.57
2019-05-29T06:21:51.964Z,4.40
2019-05-29T06:27:00.254Z,4.00
2019-05-29T06:32:09.304Z,4.60
2019-05-29T06:37:16.782Z,4.20
2019-05-29T06:42:24.875Z,3.93
2019-05-29T06:47:32.110Z,3.80
2019-05-29T06:52:41.370Z,4.10
2019-05-29T06:57:49.125Z,4.53
2019-05-29T07:03:20.216Z,4.60
2019-05-29T07:08:40.977Z,4.33
2019-05-29T07:13:50.034Z,4.70
2019-05-29T07:19:24.190Z,4.50
2019-05-29T07:24:03.834Z,4.27
2019-05-29T07:29:11.296Z,4.90
2019-05-29T07:34:20.156Z,5.33
2019-05-29T07:39:27.318Z,4.50
2019-05-29T07:44:35.400Z,3.50
2019-05-29T07:49:46.229Z,3.93
2019-05-29T07:54:52.612Z,3.77
2019-05-29T07:59:59.867Z,3.30
2019-05-29T08:05:09.356Z,3.57
2019-05-29T08:10:27.331Z,3.50
2019-05-29T08:15:49.197Z,3.60
2019-05-29T08:20:48.589Z,3.20
2019-05-29T08:25:55.906Z,3.20
2019-05-29T08:31:03.612Z,3.77
2019-05-29T08:36:12.324Z,3.07
2019-05-29T08:41:20.696Z,3.60
2019-05-29T08:46:28.003Z,3.67
2019-05-29T08:51:36.144Z,4.87
2019-05-29T08:56:44.320Z,4.80
2019-05-29T09:01:55.350Z,4.40
2019-05-29T09:07:15.140Z,4.57
2019-05-29T09:12:22.363Z,4.10
2019-05-29T09:17:30.454Z,4.03
2019-05-29T09:22:39.025Z,3.97
2019-05-29T09:27:46.402Z,4.53
2019-05-29T09:32:53.562Z,4.17
2019-05-29T09:38:02.398Z,4.60
2019-05-29T09:43:09.616Z,4.87
2019-05-29T09:48:20.100Z,4.90
2019-05-29T09:53:27.708Z,4.93
2019-05-29T09:58:36.810Z,3.90
2019-05-29T10:03:44.472Z,4.10
2019-05-29T10:08:54.104Z,4.13
2019-05-29T10:14:02.773Z,4.60
2019-05-29T10:19:11.283Z,4.10
2019-05-29T10:24:19.317Z,4.50
2019-05-29T10:29:27.598Z,4.33
2019-05-29T10:34:35.275Z,5.10
2019-05-29T10:39:44.641Z,4.00
2019-05-29T10:44:53.343Z,3.57
2019-05-29T10:50:00.562Z,3.70
2019-05-29T10:55:08.879Z,3.63
2019-05-29T11:00:26.676Z,4.13
2019-05-29T11:05:35.021Z,4.20
2019-05-29T11:10:42.179Z,3.93
2019-05-29T11:15:50.718Z,4.50
2019-05-29T11:20:58.076Z,4.00
2019-05-29T11:26:06.590Z,4.00
2019-05-29T11:31:13.899Z,3.40
2019-05-29T11:36:23.650Z,3.83
2019-05-29T11:41:30.776Z,3.70
2019-05-29T11:46:42.362Z,3.80
2019-05-29T11:51:51.336Z,3.70
2019-05-29T11:57:05.339Z,3.50
2019-05-29T12:02:13.501Z,3.30
2019-05-29T12:07:21.084Z,2.60
2019-05-29T12:12:28.846Z,2.27
2019-05-29T12:17:38.371Z,2.43
2019-05-29T12:23:11.215Z,3.30
2019-05-29T12:27:57.358Z,3.27
2019-05-29T12:33:06.689Z,3.10
2019-05-29T12:38:13.820Z,4.10
2019-05-29T12:43:27.616Z,2.97
2019-05-29T12:48:39.319Z,2.90
2019-05-29T12:53:48.356Z,3.30
2019-05-29T12:58:56.082Z,3.17
2019-05-29T13:04:05.438Z,2.40
2019-05-29T13:09:12.829Z,2.37
2019-05-29T13:14:19.946Z,7.43
2019-05-29T13:19:28.129Z,4.53
2019-05-29T13:24:35.405Z,2.40
2019-05-29T13:29:44.579Z,2.13
2019-05-29T13:34:52.006Z,2.07
2019-05-29T13:40:00.323Z,2.00
2019-05-29T13:45:17.684Z,2.03
2019-05-29T13:50:21.019Z,2.00
2019-05-29T13:55:30.200Z,1.70
2019-05-29T14:00:38.513Z,1.90
2019-05-29T14:05:55.018Z,1.80
2019-05-29T14:11:03.492Z,2.00
2019-05-29T14:16:16.401Z,1.93
2019-05-29T14:21:24.196Z,2.70
2019-05-29T14:26:31.427Z,3.23
2019-05-29T14:31:41.288Z,1.90
2019-05-29T14:37:07.985Z,2.63
2019-05-29T14:42:16.213Z,2.67
2019-05-29T14:47:25.117Z,3.00
2019-05-29T14:52:32.854Z,1.90
2019-05-29T14:57:59.087Z,1.70
2019-05-29T15:03:07.674Z,1.70
2019-05-29T15:08:34.817Z,1.87
2019-05-29T15:13:42.912Z,4.40
2019-05-29T15:18:50.115Z,1.90
2019-05-29T15:24:15.955Z,1.60
2019-05-29T15:29:23.445Z,1.80
2019-05-29T15:34:33.365Z,1.50
2019-05-29T15:39:41.377Z,1.50
2019-05-29T15:44:49.750Z,1.50
2019-05-29T15:49:57.344Z,2.73
2019-05-29T15:55:21.241Z,1.60
2019-05-29T16:00:18.870Z,2.50
2019-05-29T16:05:27.565Z,1.40
2019-05-29T16:10:52.886Z,1.60
2019-05-29T16:16:02.217Z,1.30
2019-05-29T16:21:12.546Z,1.27
2019-05-29T16:26:20.114Z,1.20
2019-05-29T16:31:30.290Z,1.30
2019-05-29T16:36:39.092Z,1.10
2019-05-29T16:41:47.371Z,1.10
2019-05-29T16:46:54.510Z,1.30
2019-05-29T16:52:04.780Z,2.80
2019-05-29T16:57:13.026Z,1.00
2019-05-29T17:02:21.733Z,1.30
2019-05-29T17:07:28.960Z,1.10
2019-05-29T17:12:36.846Z,1.13
2019-05-29T17:17:43.996Z,1.20
2019-05-29T17:22:51.479Z,1.43
2019-05-29T17:27:58.601Z,3.20
2019-05-29T17:33:07.326Z,1.80
2019-05-29T17:38:19.018Z,2.83
2019-05-29T17:43:28.736Z,1.33
2019-05-29T17:48:38.920Z,1.40
2019-05-29T17:53:46.899Z,1.40
2019-05-29T17:59:12.387Z,1.20
2019-05-29T18:04:41.942Z,1.57
2019-05-29T18:09:50.098Z,3.93
2019-05-29T18:14:57.449Z,1.90
2019-05-29T18:20:07.461Z,2.63
2019-05-29T18:25:17.901Z,2.00
2019-05-29T18:30:26.631Z,2.60
2019-05-29T18:35:35.885Z,2.87
2019-05-29T18:40:44.537Z,1.93
2019-05-29T18:45:52.167Z,1.60
2019-05-29T18:51:17.498Z,2.60
2019-05-29T18:56:26.450Z,2.60
2019-05-29T19:01:38.080Z,4.47
2019-05-29T19:06:47.692Z,3.30
2019-05-29T19:11:54.993Z,3.90
2019-05-29T19:17:02.519Z,2.97
2019-05-29T19:22:11.351Z,3.17
2019-05-29T19:27:31.070Z,3.10
2019-05-29T19:32:48.987Z,2.73
2019-05-29T19:38:14.531Z,5.07
2019-05-29T19:43:30.335Z,3.37
2019-05-29T19:48:37.579Z,2.87
2019-05-29T19:53:51.088Z,2.70
2019-05-29T19:59:16.738Z,3.50
2019-05-29T20:04:23.905Z,2.80
2019-05-29T20:09:31.308Z,2.80
2019-05-29T20:14:56.864Z,3.67
2019-05-29T20:20:22.244Z,5.40
2019-05-29T20:25:47.342Z,6.43
2019-05-29T20:31:12.718Z,6.97
2019-05-29T20:36:40.047Z,7.77
2019-05-29T20:41:48.468Z,5.70
2019-05-29T20:47:08.880Z,4.70
2019-05-29T20:52:27.495Z,2.67
2019-05-29T20:57:38.372Z,2.47
2019-05-29T21:02:46.386Z,2.37
2019-05-29T21:07:55.278Z,2.23
2019-05-29T21:13:05.943Z,2.10
2019-05-29T21:18:14.123Z,1.87
2019-05-29T21:23:26.431Z,2.23
2019-05-29T21:28:41.788Z,2.10
2019-05-29T21:33:49.273Z,2.50
2019-05-29T21:38:55.865Z,2.30
2019-05-29T21:44:06.152Z,2.20
2019-05-29T21:49:21.101Z,2.20
2019-05-29T21:54:29.170Z,2.10
2019-05-29T21:59:37.659Z,2.87
2019-05-29T22:04:56.467Z,2.57
2019-05-29T22:10:08.439Z,2.10
2019-05-29T22:15:17.974Z,2.40
2019-05-29T22:20:28.372Z,2.27
2019-05-29T22:25:36.808Z,2.83
2019-05-29T22:30:46.454Z,3.13
2019-05-29T22:35:55.698Z,3.63
2019-05-29T22:41:03.761Z,3.83
2019-05-29T23:09:08.571Z,12.33
2019-05-29T23:14:17.546Z,12.30
2019-05-29T23:19:26.238Z,11.80
2019-05-29T23:24:40.314Z,10.80
2019-05-29T23:29:49.675Z,8.90
2019-05-29T23:34:59.081Z,7.60
2019-05-29T23:40:10.534Z,7.17
2019-05-29T23:45:29.411Z,7.13
2019-05-29T23:50:37.153Z,6.60
2019-05-29T23:55:45.402Z,12.73
